createdAt,value
2023-05-10T00:00:35.478Z,74.80
2023-05-10T00:01:38.383Z,75.28
2023-05-10T00:02:41.829Z,75.55
2023-05-10T00:03:44.946Z,75.45
2023-05-10T00:04:47.945Z,75.39
2023-05-10T00:05:50.833Z,75.70
2023-05-10T00:06:53.918Z,75.70
2023-05-10T00:07:56.832Z,75.26
2023-05-10T00:08:59.922Z,74.94
2023-05-10T00:10:02.793Z,75.05
2023-05-10T00:11:05.682Z,75.14
2023-05-10T00:12:08.501Z,75.88
2023-05-10T00:13:11.281Z,75.62
2023-05-10T00:14:14.174Z,76.04
2023-05-10T00:15:16.996Z,76.42
2023-05-10T00:16:19.794Z,75.78
2023-05-10T00:17:22.671Z,76.09
2023-05-10T00:18:25.739Z,76.35
2023-05-10T00:19:28.511Z,77.05
2023-05-10T00:20:31.338Z,77.15
2023-05-10T00:21:34.960Z,77.27
2023-05-10T00:22:38.047Z,77.09
2023-05-10T00:23:41.120Z,76.69
2023-05-10T00:24:43.986Z,77.57
2023-05-10T00:25:46.909Z,77.78
2023-05-10T00:26:49.837Z,77.67
2023-05-10T00:27:52.595Z,77.45
2023-05-10T00:28:55.586Z,77.81
2023-05-10T00:29:58.746Z,77.64
2023-05-10T00:31:01.626Z,78.80
2023-05-10T00:32:04.635Z,78.39
2023-05-10T00:33:07.515Z,79.06
2023-05-10T00:34:10.376Z,78.43
2023-05-10T00:35:13.212Z,78.77
2023-05-10T00:36:16.061Z,78.46
2023-05-10T00:37:18.985Z,78.12
2023-05-10T00:38:21.923Z,77.99
2023-05-10T00:39:25.122Z,78.01
2023-05-10T00:40:28.080Z,78.19
2023-05-10T00:41:34.793Z,78.01
2023-05-10T00:42:37.880Z,78.51
2023-05-10T00:43:40.875Z,78.71
2023-05-10T00:44:43.893Z,78.59
2023-05-10T00:45:47.267Z,78.26
2023-05-10T00:46:50.772Z,78.46
2023-05-10T00:47:56.412Z,78.16
2023-05-10T00:48:59.529Z,78.73
2023-05-10T00:50:03.354Z,78.36
2023-05-10T00:51:06.508Z,78.09
2023-05-10T00:52:10.470Z,78.44
2023-05-10T00:53:13.524Z,78.53
2023-05-10T00:54:16.593Z,78.77
2023-05-10T00:55:19.928Z,79.10
2023-05-10T00:56:24.544Z,79.17
2023-05-10T00:57:28.133Z,79.04
2023-05-10T00:58:32.215Z,79.04
2023-05-10T00:59:35.501Z,79.57
2023-05-10T01:00:39.828Z,79.67
2023-05-10T01:01:42.677Z,80.21
2023-05-10T01:02:47.598Z,80.09
2023-05-10T01:03:51.138Z,80.57
2023-05-10T01:04:54.049Z,80.95
2023-05-10T01:05:56.975Z,80.34
2023-05-10T01:07:00.673Z,79.97
2023-05-10T01:08:03.961Z,80.12
2023-05-10T01:09:07.741Z,80.39
2023-05-10T01:10:11.764Z,80.56
2023-05-10T01:11:15.025Z,80.39
2023-05-10T01:12:18.251Z,80.37
2023-05-10T01:13:34.992Z,79.92
2023-05-10T01:14:38.147Z,79.73
2023-05-10T01:15:42.120Z,80.11
2023-05-10T01:16:47.596Z,80.88
2023-05-10T01:17:50.627Z,80.16
2023-05-10T01:18:54.168Z,80.71
2023-05-10T01:19:57.290Z,80.94
2023-05-10T01:21:18.235Z,81.07
2023-05-10T01:22:26.785Z,81.03
2023-05-10T01:23:46.967Z,80.92
2023-05-10T01:25:04.669Z,80.37
2023-05-10T01:26:19.284Z,81.12
2023-05-10T01:27:40.736Z,81.38
2023-05-10T01:29:08.221Z,81.39
2023-05-10T01:30:16.878Z,81.17
2023-05-10T01:31:56.996Z,81.55
2023-05-10T01:33:02.554Z,81.50
2023-05-10T01:34:14.249Z,81.55
2023-05-10T01:35:28.901Z,81.63
2023-05-10T01:36:46.961Z,81.81
2023-05-10T01:38:17.648Z,81.46
2023-05-10T01:39:42.184Z,81.01
2023-05-10T01:41:30.436Z,81.21
2023-05-10T01:42:42.340Z,81.07
2023-05-10T01:44:28.052Z,80.93
2023-05-10T01:45:53.868Z,81.12
2023-05-10T01:47:07.558Z,81.23
2023-05-10T01:48:12.527Z,81.14
2023-05-10T01:49:24.783Z,81.96
2023-05-10T01:50:31.861Z,81.28
2023-05-10T01:51:46.554Z,81.21
2023-05-10T01:52:55.915Z,81.59
2023-05-10T01:54:03.777Z,81.63
2023-05-10T01:55:09.362Z,81.49
2023-05-10T01:56:14.229Z,81.50
2023-05-10T01:57:19.116Z,81.41
2023-05-10T01:58:28.536Z,81.95
2023-05-10T01:59:41.959Z,81.89
2023-05-10T02:00:47.411Z,82.02
2023-05-10T02:01:52.405Z,81.44
2023-05-10T02:02:56.668Z,81.83
2023-05-10T02:04:00.660Z,81.46
2023-05-10T02:05:05.292Z,81.21
2023-05-10T02:06:10.526Z,81.37
2023-05-10T02:07:15.323Z,81.09
2023-05-10T02:08:19.406Z,81.00
2023-05-10T02:09:23.634Z,81.37
2023-05-10T02:10:27.332Z,81.46
2023-05-10T02:11:31.842Z,81.93
2023-05-10T02:12:40.408Z,81.66
2023-05-10T02:13:44.831Z,81.34
2023-05-10T02:14:49.001Z,81.76
2023-05-10T02:15:52.545Z,82.01
2023-05-10T02:16:57.361Z,81.35
2023-05-10T02:18:03.881Z,81.14
2023-05-10T02:19:10.005Z,80.90
2023-05-10T02:20:14.264Z,81.22
2023-05-10T02:21:18.676Z,81.13
2023-05-10T02:22:23.122Z,80.74
2023-05-10T02:23:27.573Z,81.34
2023-05-10T02:24:31.671Z,81.17
2023-05-10T02:25:35.332Z,81.72
2023-05-10T02:26:40.497Z,81.80
2023-05-10T02:27:46.005Z,81.15
2023-05-10T02:28:51.022Z,81.09
2023-05-10T02:29:55.736Z,80.75
2023-05-10T02:30:58.837Z,80.64
2023-05-10T02:32:02.927Z,80.48
2023-05-10T02:33:07.544Z,80.75
2023-05-10T02:34:12.515Z,80.22
2023-05-10T02:35:16.505Z,79.59
2023-05-10T02:36:23.679Z,79.86
2023-05-10T02:37:27.550Z,79.71
2023-05-10T02:38:32.669Z,79.75
2023-05-10T02:39:36.457Z,80.17
2023-05-10T02:40:42.011Z,79.79
2023-05-10T02:41:48.140Z,79.94
2023-05-10T02:42:55.880Z,79.72
2023-05-10T02:44:03.960Z,79.87
2023-05-10T02:45:13.333Z,80.22
2023-05-10T02:46:16.232Z,80.10
2023-05-10T02:47:20.330Z,79.84
2023-05-10T02:48:23.305Z,79.06
2023-05-10T02:49:26.100Z,79.76
2023-05-10T02:50:31.517Z,79.94
2023-05-10T02:51:37.553Z,80.09
2023-05-10T02:52:45.818Z,79.75
2023-05-10T02:53:51.425Z,80.09
2023-05-10T02:54:59.879Z,80.38
2023-05-10T02:56:08.489Z,79.81
2023-05-10T02:57:17.217Z,79.64
2023-05-10T02:58:22.716Z,79.71
2023-05-10T02:59:25.732Z,79.50
2023-05-10T03:00:28.560Z,79.26
2023-05-10T03:01:31.348Z,79.26
2023-05-10T03:02:34.175Z,79.58
2023-05-10T03:03:36.959Z,79.10
2023-05-10T03:04:40.011Z,78.86
2023-05-10T03:05:43.013Z,79.08
2023-05-10T03:06:46.277Z,78.39
2023-05-10T03:07:49.821Z,78.92
2023-05-10T03:08:52.813Z,78.29
2023-05-10T03:09:55.713Z,78.42
2023-05-10T03:11:33.338Z,78.89
2023-05-10T03:12:54.664Z,79.23
2023-05-10T03:14:22.324Z,78.74
2023-05-10T03:15:40.228Z,78.49
2023-05-10T03:17:32.496Z,78.64
2023-05-10T03:18:56.107Z,79.02
2023-05-10T03:20:04.700Z,79.09
2023-05-10T03:21:13.533Z,79.01
2023-05-10T03:22:26.621Z,78.86
2023-05-10T03:23:38.351Z,78.64
2023-05-10T03:24:43.532Z,79.07
2023-05-10T03:25:49.251Z,79.63
2023-05-10T03:26:57.931Z,79.50
2023-05-10T03:28:03.489Z,79.77
2023-05-10T03:29:09.182Z,79.25
2023-05-10T03:30:13.946Z,79.08
2023-05-10T03:31:17.031Z,78.98
2023-05-10T03:32:20.208Z,78.84
2023-05-10T03:33:23.038Z,78.98
2023-05-10T03:34:26.368Z,78.98
2023-05-10T03:35:29.234Z,79.06
2023-05-10T03:36:31.991Z,79.79
2023-05-10T03:37:34.806Z,79.53
2023-05-10T03:38:37.835Z,79.44
2023-05-10T03:39:40.781Z,79.73
2023-05-10T03:40:43.633Z,79.47
2023-05-10T03:41:46.402Z,79.59
2023-05-10T03:42:49.368Z,79.99
2023-05-10T03:43:52.495Z,79.82
2023-05-10T03:44:55.416Z,79.56
2023-05-10T03:45:58.228Z,79.99
2023-05-10T03:47:01.228Z,79.83
2023-05-10T03:48:04.555Z,79.64
2023-05-10T03:49:07.581Z,79.72
2023-05-10T03:50:11.557Z,80.42
2023-05-10T03:51:14.500Z,80.14
2023-05-10T03:52:17.272Z,80.43
2023-05-10T03:53:20.521Z,80.25
2023-05-10T03:54:23.324Z,80.26
2023-05-10T03:55:26.171Z,80.07
2023-05-10T03:56:29.002Z,79.83
2023-05-10T03:57:31.976Z,80.20
2023-05-10T03:58:35.331Z,80.08
2023-05-10T03:59:38.224Z,79.79
2023-05-10T04:00:44.951Z,80.01
2023-05-10T04:01:47.869Z,80.10
2023-05-10T04:02:50.712Z,79.87
2023-05-10T04:03:53.742Z,79.78
2023-05-10T04:04:56.738Z,80.29
2023-05-10T04:06:03.219Z,80.16
2023-05-10T04:07:06.241Z,80.07
2023-05-10T04:08:09.191Z,80.71
2023-05-10T04:09:12.174Z,79.81
2023-05-10T04:10:15.275Z,79.27
2023-05-10T04:11:18.217Z,79.61
2023-05-10T04:12:21.158Z,79.50
2023-05-10T04:13:24.060Z,79.21
2023-05-10T04:14:26.917Z,79.73
2023-05-10T04:15:29.800Z,79.76
2023-05-10T04:16:32.656Z,79.78
2023-05-10T04:17:35.593Z,79.64
2023-05-10T04:18:38.528Z,79.56
2023-05-10T04:19:41.523Z,80.04
2023-05-10T04:20:44.549Z,80.64
2023-05-10T04:21:47.294Z,79.95
2023-05-10T04:22:50.149Z,79.95
2023-05-10T04:23:53.050Z,79.87
2023-05-10T04:24:55.984Z,79.71
2023-05-10T04:26:02.885Z,79.68
2023-05-10T04:27:05.694Z,79.85
2023-05-10T04:28:08.678Z,80.35
2023-05-10T04:29:11.587Z,80.15
2023-05-10T04:30:14.793Z,80.09
2023-05-10T04:31:18.484Z,80.12
2023-05-10T04:32:21.593Z,80.38
2023-05-10T04:33:24.560Z,80.06
2023-05-10T04:34:27.286Z,79.39
2023-05-10T04:35:30.304Z,79.59
2023-05-10T04:36:35.263Z,79.95
2023-05-10T04:37:38.168Z,80.19
2023-05-10T04:38:41.217Z,80.21
2023-05-10T04:39:44.042Z,80.01
2023-05-10T04:40:47.009Z,80.02
2023-05-10T04:41:49.990Z,79.60
2023-05-10T04:42:53.253Z,79.35
2023-05-10T04:43:56.680Z,79.46
2023-05-10T04:44:59.476Z,78.85
2023-05-10T04:46:02.391Z,78.81
2023-05-10T04:47:05.725Z,78.80
2023-05-10T04:48:08.742Z,78.87
2023-05-10T04:49:11.527Z,78.53
2023-05-10T04:50:14.672Z,79.37
2023-05-10T04:51:17.741Z,79.09
2023-05-10T04:52:20.621Z,78.96
2023-05-10T04:53:23.896Z,79.04
2023-05-10T04:54:26.789Z,79.28
2023-05-10T04:55:29.597Z,78.87
2023-05-10T04:56:32.465Z,78.60
2023-05-10T04:57:35.184Z,78.41
2023-05-10T04:58:38.102Z,78.32
2023-05-10T04:59:40.996Z,78.62
2023-05-10T05:00:44.011Z,78.60
2023-05-10T05:01:46.901Z,77.85
2023-05-10T05:02:50.308Z,78.10
2023-05-10T05:03:54.290Z,78.21
2023-05-10T05:04:59.398Z,77.59
2023-05-10T05:06:02.240Z,78.48
2023-05-10T05:07:05.577Z,78.29
2023-05-10T05:08:08.479Z,78.26
2023-05-10T05:09:11.441Z,77.85
2023-05-10T05:10:14.528Z,77.48
2023-05-10T05:11:18.812Z,77.32
2023-05-10T05:12:21.807Z,76.64
2023-05-10T05:13:25.018Z,76.40
2023-05-10T05:14:27.980Z,75.98
2023-05-10T05:15:31.768Z,76.13
2023-05-10T05:16:34.814Z,76.23
2023-05-10T05:17:38.246Z,76.05
2023-05-10T05:18:41.096Z,75.76
2023-05-10T05:19:43.944Z,75.71
2023-05-10T05:20:46.819Z,75.29
2023-05-10T05:21:49.638Z,75.05
2023-05-10T05:22:52.690Z,75.30
2023-05-10T05:23:55.581Z,74.83
2023-05-10T05:24:59.487Z,74.10
2023-05-10T05:26:02.298Z,73.99
2023-05-10T05:27:05.536Z,74.77
2023-05-10T05:28:08.737Z,74.86
2023-05-10T05:29:11.566Z,74.35
2023-05-10T05:30:14.564Z,73.95
2023-05-10T05:31:17.292Z,73.50
2023-05-10T05:32:20.622Z,74.44
2023-05-10T05:33:23.362Z,74.37
2023-05-10T05:34:27.285Z,74.94
2023-05-10T05:35:30.241Z,75.27
2023-05-10T05:36:35.305Z,74.75
2023-05-10T05:37:39.816Z,75.08
2023-05-10T05:38:43.214Z,74.86
2023-05-10T05:39:46.943Z,74.61
2023-05-10T05:40:49.812Z,74.03
2023-05-10T05:41:52.656Z,73.83
2023-05-10T05:42:55.649Z,73.50
2023-05-10T05:43:58.530Z,72.92
2023-05-10T05:45:01.300Z,73.61
2023-05-10T05:46:04.231Z,73.83
2023-05-10T05:47:07.584Z,74.28
2023-05-10T05:48:10.697Z,73.57
2023-05-10T05:49:13.719Z,73.16
2023-05-10T05:50:16.722Z,72.53
2023-05-10T05:51:19.530Z,72.13
2023-05-10T05:52:22.485Z,72.67
2023-05-10T05:53:25.729Z,72.17
2023-05-10T05:54:29.253Z,71.76
2023-05-10T05:55:32.795Z,71.57
2023-05-10T05:56:35.621Z,71.40
2023-05-10T05:57:38.880Z,72.14
2023-05-10T05:58:41.964Z,70.94
2023-05-10T05:59:45.109Z,70.28
2023-05-10T06:00:48.081Z,69.83
2023-05-10T06:01:51.503Z,69.75
2023-05-10T06:02:54.527Z,69.60
2023-05-10T06:03:57.525Z,68.85
2023-05-10T06:05:00.411Z,68.05
2023-05-10T06:06:03.213Z,69.39
2023-05-10T06:07:06.253Z,70.45
2023-05-10T06:08:09.119Z,69.58
2023-05-10T06:09:12.609Z,68.54
2023-05-10T06:10:15.577Z,69.40
2023-05-10T06:11:18.455Z,68.43
2023-05-10T06:12:21.337Z,67.51
2023-05-10T06:13:24.249Z,68.03
2023-05-10T06:14:27.371Z,66.64
2023-05-10T06:15:30.231Z,67.06
2023-05-10T06:16:33.123Z,67.17
2023-05-10T06:17:36.187Z,67.29
2023-05-10T06:18:39.144Z,67.02
2023-05-10T06:19:41.931Z,67.22
2023-05-10T06:20:44.832Z,66.53
2023-05-10T06:21:47.656Z,67.25
2023-05-10T06:22:50.503Z,66.63
2023-05-10T06:23:53.402Z,66.44
2023-05-10T06:24:56.443Z,65.84
2023-05-10T06:25:59.327Z,65.67
2023-05-10T06:27:03.261Z,66.61
2023-05-10T06:28:06.385Z,66.09
2023-05-10T06:29:09.156Z,66.33
2023-05-10T06:30:14.584Z,66.02
2023-05-10T06:31:17.779Z,66.59
2023-05-10T06:32:20.712Z,65.74
2023-05-10T06:33:23.736Z,65.11
2023-05-10T06:34:26.972Z,65.26
2023-05-10T06:35:30.477Z,65.41
2023-05-10T06:36:33.247Z,65.61
2023-05-10T06:37:36.097Z,65.04
2023-05-10T06:38:39.367Z,64.94
2023-05-10T06:39:42.419Z,66.43
2023-05-10T06:40:45.446Z,65.90
2023-05-10T06:41:48.409Z,65.40
2023-05-10T06:42:51.289Z,65.12
2023-05-10T06:43:54.189Z,65.50
2023-05-10T06:44:56.908Z,65.47
2023-05-10T06:46:00.003Z,64.60
2023-05-10T06:47:02.973Z,65.22
2023-05-10T06:48:06.080Z,64.99
2023-05-10T06:49:09.373Z,64.32
2023-05-10T06:50:15.488Z,63.30
2023-05-10T06:51:18.795Z,63.59
2023-05-10T06:52:41.534Z,64.04
2023-05-10T06:54:04.638Z,63.96
2023-05-10T06:55:08.198Z,64.11
2023-05-10T06:56:11.182Z,64.42
2023-05-10T06:57:27.440Z,63.76
2023-05-10T06:58:33.956Z,64.55
2023-05-10T06:59:37.762Z,65.03
2023-05-10T07:00:41.855Z,64.18
2023-05-10T07:01:45.031Z,63.37
2023-05-10T07:02:48.385Z,61.45
2023-05-10T07:03:51.953Z,60.37
2023-05-10T07:04:55.408Z,60.87
2023-05-10T07:06:04.317Z,60.68
2023-05-10T07:07:07.510Z,60.04
2023-05-10T07:08:10.340Z,59.78
2023-05-10T07:09:13.146Z,60.90
2023-05-10T07:10:16.135Z,60.33
2023-05-10T07:11:19.061Z,58.68
2023-05-10T07:12:22.336Z,58.76
2023-05-10T07:13:25.287Z,58.34
2023-05-10T07:14:28.480Z,59.11
2023-05-10T07:15:31.424Z,58.97
2023-05-10T07:16:34.287Z,58.90
2023-05-10T07:17:37.275Z,58.26
2023-05-10T07:18:40.199Z,57.72
2023-05-10T07:19:43.071Z,58.46
2023-05-10T07:20:45.981Z,57.88
2023-05-10T07:21:48.965Z,57.36
2023-05-10T07:22:51.815Z,55.84
2023-05-10T07:23:54.836Z,55.74
2023-05-10T07:24:57.845Z,56.13
2023-05-10T07:26:01.391Z,55.76
2023-05-10T07:27:05.459Z,55.44
2023-05-10T07:28:08.254Z,55.25
2023-05-10T07:29:11.287Z,54.75
2023-05-10T07:30:14.568Z,55.70
2023-05-10T07:31:17.442Z,56.16
2023-05-10T07:32:20.445Z,56.67
2023-05-10T07:33:23.282Z,56.95
2023-05-10T07:34:26.655Z,55.86
2023-05-10T07:35:29.598Z,56.09
2023-05-10T07:36:32.470Z,56.25
2023-05-10T07:37:35.328Z,56.63
2023-05-10T07:38:40.798Z,57.09
2023-05-10T07:39:44.067Z,58.16
2023-05-10T07:40:46.970Z,58.91
2023-05-10T07:41:49.785Z,58.64
2023-05-10T07:42:53.104Z,58.87
2023-05-10T07:43:56.004Z,56.61
2023-05-10T07:44:59.085Z,56.82
2023-05-10T07:46:02.336Z,56.56
2023-05-10T07:47:05.250Z,58.21
2023-05-10T07:48:08.197Z,58.36
2023-05-10T07:49:11.184Z,58.04
2023-05-10T07:50:14.685Z,58.02
2023-05-10T07:51:17.755Z,58.16
2023-05-10T07:52:22.392Z,59.27
2023-05-10T07:53:28.442Z,58.28
2023-05-10T07:54:31.330Z,57.48
2023-05-10T07:55:34.712Z,56.40
2023-05-10T07:56:37.715Z,56.80
2023-05-10T07:57:40.808Z,56.80
2023-05-10T07:58:43.623Z,54.90
2023-05-10T07:59:46.552Z,54.95
2023-05-10T08:00:50.479Z,54.83
2023-05-10T08:01:53.371Z,52.78
2023-05-10T08:02:56.361Z,54.10
2023-05-10T08:03:59.405Z,54.77
2023-05-10T08:05:02.471Z,53.04
2023-05-10T08:06:05.741Z,52.06
2023-05-10T08:07:08.731Z,51.71
2023-05-10T08:08:11.547Z,51.32
2023-05-10T08:09:14.769Z,50.80
2023-05-10T08:10:18.054Z,52.80
2023-05-10T08:11:22.404Z,51.96
2023-05-10T08:12:25.296Z,51.30
2023-05-10T08:13:28.262Z,51.09
2023-05-10T08:14:31.083Z,50.77
2023-05-10T08:15:34.026Z,50.81
2023-05-10T08:16:36.855Z,53.21
2023-05-10T08:17:39.847Z,53.02
2023-05-10T08:18:42.893Z,53.59
2023-05-10T08:19:46.034Z,52.44
2023-05-10T08:20:49.233Z,53.26
2023-05-10T08:21:52.277Z,54.63
2023-05-10T08:22:55.192Z,52.81
2023-05-10T08:23:58.916Z,54.29
2023-05-10T08:25:01.872Z,52.89
2023-05-10T08:26:05.215Z,51.10
2023-05-10T08:27:08.144Z,51.08
2023-05-10T08:28:11.977Z,50.42
2023-05-10T08:29:15.883Z,49.87
2023-05-10T08:30:18.828Z,49.65
2023-05-10T08:31:21.864Z,49.15
2023-05-10T08:32:24.938Z,48.92
2023-05-10T08:33:27.991Z,48.84
2023-05-10T08:34:32.331Z,50.93
2023-05-10T08:35:36.134Z,50.61
2023-05-10T08:36:39.074Z,50.34
2023-05-10T08:37:41.868Z,49.64
2023-05-10T08:38:44.702Z,51.79
2023-05-10T08:39:50.532Z,50.98
2023-05-10T08:40:59.810Z,51.03
2023-05-10T08:42:05.696Z,51.60
2023-05-10T08:43:11.308Z,50.93
2023-05-10T08:44:14.529Z,51.21
2023-05-10T08:45:19.687Z,49.78
2023-05-10T08:46:24.525Z,50.60
2023-05-10T08:47:27.894Z,51.15
2023-05-10T08:48:32.269Z,52.96
2023-05-10T08:49:36.019Z,51.94
2023-05-10T08:50:41.232Z,51.76
2023-05-10T08:51:48.584Z,50.57
2023-05-10T08:52:54.334Z,49.55
2023-05-10T08:53:58.256Z,49.69
2023-05-10T08:55:01.376Z,50.30
2023-05-10T08:56:05.097Z,49.73
2023-05-10T08:57:08.105Z,49.39
2023-05-10T08:58:11.369Z,50.00
2023-05-10T08:59:15.381Z,51.30
2023-05-10T09:00:19.810Z,50.93
2023-05-10T09:01:23.115Z,49.72
2023-05-10T09:02:27.136Z,49.12
2023-05-10T09:03:30.913Z,52.29
2023-05-10T09:04:34.303Z,50.01
2023-05-10T09:05:37.798Z,49.29
2023-05-10T09:06:41.145Z,48.96
2023-05-10T09:07:43.981Z,49.94
2023-05-10T09:08:47.455Z,50.95
2023-05-10T09:09:50.464Z,52.85
2023-05-10T09:10:54.246Z,52.28
2023-05-10T09:11:57.215Z,55.57
2023-05-10T09:13:00.577Z,53.25
2023-05-10T09:14:03.977Z,51.05
2023-05-10T09:15:10.837Z,50.97
2023-05-10T09:16:21.125Z,50.93
2023-05-10T09:17:25.852Z,50.09
2023-05-10T09:18:28.974Z,49.29
2023-05-10T09:19:31.911Z,49.23
2023-05-10T09:20:34.705Z,47.09
2023-05-10T09:21:39.774Z,48.94
2023-05-10T09:22:42.640Z,49.59
2023-05-10T09:23:48.657Z,48.00
2023-05-10T09:25:25.570Z,47.00
2023-05-10T09:26:28.957Z,48.48
2023-05-10T09:27:32.032Z,48.12
2023-05-10T09:28:51.036Z,48.34
2023-05-10T09:29:55.663Z,47.50
2023-05-10T09:30:58.893Z,47.99
2023-05-10T09:32:02.034Z,48.05
2023-05-10T09:33:05.405Z,51.25
2023-05-10T09:34:08.449Z,47.99
2023-05-10T09:35:19.842Z,47.27
2023-05-10T09:36:22.713Z,46.13
2023-05-10T09:37:31.103Z,45.48
2023-05-10T09:38:50.039Z,44.37
2023-05-10T09:39:56.279Z,43.84
2023-05-10T09:40:59.419Z,44.34
2023-05-10T09:42:20.735Z,44.52
2023-05-10T09:43:23.570Z,44.21
2023-05-10T09:44:27.576Z,44.38
2023-05-10T09:45:37.802Z,44.80
2023-05-10T09:46:41.714Z,44.52
2023-05-10T09:47:44.723Z,43.70
2023-05-10T09:48:48.967Z,43.99
2023-05-10T09:49:52.503Z,44.10
2023-05-10T09:50:58.783Z,43.23
2023-05-10T09:52:04.957Z,43.61
2023-05-10T09:53:07.970Z,43.82
2023-05-10T09:54:12.144Z,44.41
2023-05-10T09:55:15.597Z,43.23
2023-05-10T09:56:38.709Z,45.49
2023-05-10T09:57:42.142Z,42.34
2023-05-10T09:58:45.009Z,44.03
2023-05-10T09:59:48.575Z,40.46
2023-05-10T10:00:55.923Z,42.38
2023-05-10T10:02:00.838Z,40.39
2023-05-10T10:03:04.915Z,42.14
2023-05-10T10:04:12.105Z,42.89
2023-05-10T10:05:15.294Z,42.88
2023-05-10T10:06:29.630Z,43.40
2023-05-10T10:07:34.045Z,42.09
2023-05-10T10:08:37.133Z,40.27
2023-05-10T10:09:40.147Z,41.90
2023-05-10T10:10:46.287Z,42.50
2023-05-10T10:11:49.537Z,41.94
2023-05-10T10:12:53.335Z,40.83
2023-05-10T10:13:56.560Z,42.81
2023-05-10T10:15:02.453Z,44.98
2023-05-10T10:16:06.483Z,45.14
2023-05-10T10:17:10.483Z,43.41
2023-05-10T10:18:16.775Z,44.15
2023-05-10T10:19:21.768Z,43.43
2023-05-10T10:20:26.297Z,43.65
2023-05-10T10:21:29.906Z,44.95
2023-05-10T10:22:32.875Z,43.50
2023-05-10T10:23:38.901Z,43.90
2023-05-10T10:24:41.972Z,43.87
2023-05-10T10:25:46.013Z,43.78
2023-05-10T10:26:50.285Z,43.51
2023-05-10T10:27:53.106Z,43.10
2023-05-10T10:29:18.197Z,41.98
2023-05-10T10:30:27.328Z,41.47
2023-05-10T10:31:39.322Z,41.72
2023-05-10T10:32:54.210Z,42.84
2023-05-10T10:34:09.309Z,42.52
2023-05-10T10:35:12.378Z,42.12
2023-05-10T10:36:16.928Z,42.08
2023-05-10T10:37:19.973Z,41.83
2023-05-10T10:38:23.269Z,40.20
2023-05-10T10:39:26.669Z,39.07
2023-05-10T10:40:34.649Z,39.78
2023-05-10T10:41:45.302Z,39.07
2023-05-10T10:42:51.066Z,41.41
2023-05-10T10:44:29.037Z,43.55
2023-05-10T10:45:32.016Z,41.40
2023-05-10T10:46:35.796Z,41.77
2023-05-10T10:47:38.670Z,41.15
2023-05-10T10:49:11.236Z,41.00
2023-05-10T10:50:14.574Z,39.34
2023-05-10T10:51:17.456Z,38.39
2023-05-10T10:52:42.108Z,41.39
2023-05-10T10:53:45.404Z,40.97
2023-05-10T10:54:58.244Z,40.18
2023-05-10T10:56:10.617Z,39.52
2023-05-10T10:57:14.951Z,39.97
2023-05-10T10:58:36.711Z,40.66
2023-05-10T10:59:47.434Z,40.50
2023-05-10T11:00:50.420Z,41.12
2023-05-10T11:01:53.356Z,43.52
2023-05-10T11:03:13.157Z,40.57
2023-05-10T11:04:18.788Z,40.96
2023-05-10T11:05:25.956Z,38.76
2023-05-10T11:06:36.922Z,36.72
2023-05-10T11:08:07.809Z,37.89
2023-05-10T11:09:13.544Z,36.97
2023-05-10T11:10:21.736Z,37.72
2023-05-10T11:11:24.652Z,38.01
2023-05-10T11:12:27.675Z,37.53
2023-05-10T11:13:40.983Z,37.82
2023-05-10T11:14:43.980Z,37.66
2023-05-10T11:15:51.051Z,39.04
2023-05-10T11:16:54.061Z,38.42
2023-05-10T11:17:57.098Z,38.51
2023-05-10T11:19:06.333Z,39.08
2023-05-10T11:20:16.170Z,41.05
2023-05-10T11:21:19.592Z,40.50
2023-05-10T11:22:22.450Z,39.87
2023-05-10T11:23:49.281Z,39.88
2023-05-10T11:25:01.803Z,39.21
2023-05-10T11:26:06.283Z,38.60
2023-05-10T11:27:09.375Z,39.58
2023-05-10T11:28:14.498Z,39.77
2023-05-10T11:29:17.738Z,39.89
2023-05-10T11:30:21.326Z,40.73
2023-05-10T11:31:24.613Z,40.03
2023-05-10T11:32:27.875Z,40.41
2023-05-10T11:33:31.092Z,39.74
2023-05-10T11:34:36.791Z,39.47
2023-05-10T11:35:42.481Z,39.23
2023-05-10T11:36:52.913Z,38.95
2023-05-10T11:37:55.648Z,39.31
2023-05-10T11:38:58.587Z,39.18
2023-05-10T11:40:01.825Z,40.20
2023-05-10T11:41:04.862Z,42.30
2023-05-10T11:42:10.431Z,41.50
2023-05-10T11:43:13.345Z,41.41
2023-05-10T11:44:16.383Z,40.97
2023-05-10T11:45:19.344Z,41.18
2023-05-10T11:46:24.493Z,41.80
2023-05-10T11:47:27.356Z,41.36
2023-05-10T11:48:31.419Z,41.52
2023-05-10T11:49:34.774Z,41.33
2023-05-10T11:50:37.794Z,40.64
2023-05-10T11:51:41.146Z,40.06
2023-05-10T11:52:44.038Z,39.24
2023-05-10T11:53:46.816Z,40.42
2023-05-10T11:54:53.630Z,38.36
2023-05-10T11:55:56.673Z,37.76
2023-05-10T11:56:59.596Z,38.05
2023-05-10T11:58:03.902Z,38.88
2023-05-10T11:59:07.051Z,37.65
2023-05-10T12:00:10.421Z,39.62
2023-05-10T12:01:13.511Z,37.58
2023-05-10T12:02:16.646Z,36.94
2023-05-10T12:03:20.218Z,38.51
2023-05-10T12:04:23.508Z,38.32
2023-05-10T12:05:26.906Z,38.14
2023-05-10T12:06:38.549Z,39.04
2023-05-10T12:07:41.544Z,39.13
2023-05-10T12:08:51.134Z,38.86
2023-05-10T12:10:13.489Z,38.73
2023-05-10T12:11:16.867Z,38.73
2023-05-10T12:12:19.783Z,38.06
2023-05-10T12:13:22.597Z,37.39
2023-05-10T12:14:25.728Z,37.17
2023-05-10T12:15:29.259Z,37.01
2023-05-10T12:16:32.160Z,36.35
2023-05-10T12:17:35.008Z,36.75
2023-05-10T12:18:41.374Z,35.64
2023-05-10T12:19:45.010Z,34.97
2023-05-10T12:20:47.836Z,35.21
2023-05-10T12:21:50.763Z,35.11
2023-05-10T12:22:58.330Z,35.50
2023-05-10T12:24:04.625Z,35.10
2023-05-10T12:25:09.575Z,35.44
2023-05-10T12:26:12.734Z,36.78
2023-05-10T12:28:36.595Z,37.16
2023-05-10T12:29:45.031Z,37.76
2023-05-10T12:30:47.766Z,37.12
2023-05-10T12:31:55.620Z,36.36
2023-05-10T12:33:11.280Z,38.17
2023-05-10T12:34:41.565Z,37.38
2023-05-10T12:35:54.547Z,36.35
2023-05-10T12:36:57.607Z,36.09
2023-05-10T12:38:00.794Z,36.86
2023-05-10T12:39:04.653Z,36.55
2023-05-10T12:40:09.465Z,37.72
2023-05-10T12:41:14.991Z,36.72
2023-05-10T12:42:17.906Z,36.77
2023-05-10T12:43:20.876Z,37.11
2023-05-10T12:44:23.624Z,35.91
2023-05-10T12:45:26.715Z,37.13
2023-05-10T12:46:29.736Z,36.77
2023-05-10T12:47:33.702Z,38.24
2023-05-10T12:48:37.374Z,37.36
2023-05-10T12:49:40.309Z,37.26
2023-05-10T12:50:43.302Z,38.91
2023-05-10T12:51:46.156Z,38.77
2023-05-10T12:52:48.851Z,38.59
2023-05-10T12:53:51.627Z,38.13
2023-05-10T12:54:54.893Z,38.86
2023-05-10T12:55:58.360Z,38.39
2023-05-10T12:57:01.174Z,38.68
2023-05-10T12:58:03.916Z,38.80
2023-05-10T12:59:06.649Z,38.45
2023-05-10T13:00:10.215Z,38.39
2023-05-10T13:01:13.000Z,38.02
2023-05-10T13:02:19.592Z,37.76
2023-05-10T13:03:22.476Z,37.94
2023-05-10T13:04:25.415Z,37.48
2023-05-10T13:05:28.142Z,37.52
2023-05-10T13:06:31.969Z,38.10
2023-05-10T13:07:34.869Z,37.43
2023-05-10T13:08:37.815Z,36.99
2023-05-10T13:09:41.307Z,37.54
2023-05-10T13:10:44.096Z,36.17
2023-05-10T13:11:46.820Z,35.94
2023-05-10T13:12:49.621Z,35.38
2023-05-10T13:13:52.997Z,35.97
2023-05-10T13:14:55.816Z,34.71
2023-05-10T13:15:58.669Z,35.93
2023-05-10T13:17:01.653Z,36.24
2023-05-10T13:18:05.120Z,34.92
2023-05-10T13:19:08.186Z,35.18
2023-05-10T13:20:11.723Z,36.49
2023-05-10T13:21:14.669Z,36.53
2023-05-10T13:22:23.081Z,35.11
2023-05-10T13:23:31.724Z,35.26
2023-05-10T13:24:34.787Z,34.24
2023-05-10T13:25:37.813Z,34.52
2023-05-10T13:26:41.911Z,35.31
2023-05-10T13:27:44.643Z,35.64
2023-05-10T13:28:47.488Z,35.54
2023-05-10T13:29:50.254Z,34.94
2023-05-10T13:30:53.207Z,34.82
2023-05-10T13:31:56.137Z,35.36
2023-05-10T13:32:59.089Z,36.24
2023-05-10T13:34:02.229Z,36.49
2023-05-10T13:35:05.834Z,36.12
2023-05-10T13:36:08.818Z,36.06
2023-05-10T13:37:11.665Z,35.10
2023-05-10T13:38:14.948Z,35.14
2023-05-10T13:39:18.086Z,35.31
2023-05-10T13:40:20.975Z,35.60
2023-05-10T13:41:23.786Z,36.50
2023-05-10T13:42:26.918Z,36.11
2023-05-10T13:43:30.887Z,35.30
2023-05-10T13:44:35.090Z,35.37
2023-05-10T13:45:38.069Z,36.23
2023-05-10T13:46:41.982Z,35.78
2023-05-10T13:47:44.916Z,35.73
2023-05-10T13:48:48.067Z,35.26
2023-05-10T13:49:50.849Z,37.39
2023-05-10T13:50:53.753Z,36.76
2023-05-10T13:51:56.636Z,35.78
2023-05-10T13:52:59.501Z,35.69
2023-05-10T13:54:03.218Z,36.60
2023-05-10T13:55:06.280Z,36.66
2023-05-10T13:56:09.130Z,36.62
2023-05-10T13:57:14.988Z,36.15
2023-05-10T13:58:18.035Z,36.33
2023-05-10T13:59:20.720Z,36.19
2023-05-10T14:00:23.952Z,36.74